Time;durP1;ratioP1;P1;durP2;ratioP2;P2;SDS_P1;SDS_P2;PMS_P1;PMS_P2;Temp;Humidity;BMP_temperature;BMP_pressure;BME280_temperature;BME280_humidity;BME280_pressure;Samples;Min_cycle;Max_cycle;Signal;HPM_P1;HPM_P2
2022/04/19 00:01:26;;;;;;;9.95;5.55;;;;;;;0.54;67.51;99670.25;1779664;80;21776;-62
2022/04/19 00:03:53;;;;;;;11.57;6.37;;;;;;;0.51;67.41;99662.58;1785339;80;21061;-62
2022/04/19 00:06:20;;;;;;;10.08;6.30;;;;;;;0.48;68.23;99666.45;1784240;80;21740;-62
2022/04/19 00:08:48;;;;;;;14.05;6.78;;;;;;;0.45;68.85;99665.20;1764955;80;21045;-62
2022/04/19 00:11:14;;;;;;;11.48;6.62;;;;;;;0.39;68.04;99669.06;1779552;80;21135;-61
2022/04/19 00:13:41;;;;;;;11.20;6.10;;;;;;;0.38;67.69;99672.50;1777981;80;21038;-62
2022/04/19 00:16:08;;;;;;;12.67;6.27;;;;;;;0.36;67.54;99663.95;1763822;80;20976;-62
2022/04/19 00:18:35;;;;;;;10.32;6.10;;;;;;;0.34;68.10;99663.13;1768601;79;20989;-61
2022/04/19 00:21:02;;;;;;;9.75;6.20;;;;;;;0.32;67.45;99662.28;1784750;80;20933;-61
2022/04/19 00:23:29;;;;;;;;;;;;;;;0.30;67.79;99658.86;1779090;79;21898;-62
2022/04/19 00:25:55;;;;;;;12.60;6.62;;;;;;;0.28;67.67;99654.16;1767942;80;20109;-62
2022/04/19 00:28:22;;;;;;;8.10;5.90;;;;;;;0.25;67.86;99655.46;1777920;79;20998;-62
2022/04/19 00:30:48;;;;;;;8.65;5.90;;;;;;;0.24;68.26;99655.05;1764157;80;21017;-62
2022/04/19 00:33:16;;;;;;;9.83;5.70;;;;;;;0.25;67.99;99660.59;1775571;80;21625;-62
2022/04/19 00:35:43;;;;;;;10.28;4.85;;;;;;;0.21;67.88;99643.94;1773972;79;21110;-62
2022/04/19 00:38:10;;;;;;;8.27;4.60;;;;;;;0.20;68.55;99643.52;1771001;80;20989;-62
2022/04/19 00:40:37;;;;;;;10.45;5.17;;;;;;;0.19;68.12;99642.23;1779303;80;21111;-62
2022/04/19 00:43:05;;;;;;;10.30;4.37;;;;;;;0.18;68.16;99647.80;1787313;79;21476;-62
2022/04/19 00:45:34;;;;;;;6.83;4.42;;;;;;;0.13;69.10;99652.11;1785557;79;21512;-62
2022/04/19 00:48:02;;;;;;;8.90;5.15;;;;;;;0.10;68.28;99647.00;1777454;80;22200;-63
2022/04/19 00:50:41;;;;;;;11.43;4.87;;;;;;;0.08;68.28;99643.58;1782450;80;21084;-62
2022/04/19 00:53:11;;;;;;;6.78;3.77;;;;;;;0.07;68.16;99647.02;1780092;80;21005;-62
2022/04/19 00:55:38;;;;;;;8.65;4.00;;;;;;;0.10;68.27;99647.00;1778844;80;20978;-62
2022/04/19 00:58:06;;;;;;;7.47;4.35;;;;;;;0.13;68.47;99646.98;1768147;79;20957;-62
2022/04/19 01:00:36;;;;;;;8.18;4.40;;;;;;;0.15;68.70;99642.69;1776466;79;21067;-61
2022/04/19 01:03:02;;;;;;;5.00;3.13;;;;;;;0.18;68.83;99638.82;1772398;80;21434;-62
2022/04/19 01:05:29;;;;;;;5.33;3.87;;;;;;;0.20;69.16;99635.81;1767459;79;21192;-62
2022/04/19 01:07:56;;;;;;;10.32;3.83;;;;;;;0.21;68.86;99631.09;1781472;80;21022;-62
2022/04/19 01:10:23;;;;;;;8.18;4.05;;;;;;;0.24;68.97;99628.09;1777381;80;20989;-62
2022/04/19 01:15:34;;;;;;;4.80;3.08;;;;;;;0.24;68.95;99628.94;1772268;79;21597;-60
2022/04/19 01:18:02;;;;;;;3.85;3.30;;;;;;;0.27;69.08;99628.06;1783300;80;21115;-60
2022/04/19 01:20:29;;;;;;;6.42;3.60;;;;;;;0.29;69.24;99623.78;1742577;80;28677;-60
2022/04/19 01:22:56;;;;;;;4.70;3.05;;;;;;;0.29;69.18;99619.93;1716691;81;20986;-61
2022/04/19 01:25:22;;;;;;;7.50;4.00;;;;;;;0.29;69.19;99613.51;1742826;81;22002;-60
2022/04/19 01:27:49;;;;;;;5.42;3.27;;;;;;;0.30;69.04;99608.78;1749436;81;21037;-60
2022/04/19 01:30:17;;;;;;;7.62;3.98;;;;;;;0.30;69.06;99604.92;1746634;80;20926;-60
2022/04/19 01:32:43;;;;;;;7.12;3.90;;;;;;;0.31;69.16;99601.48;1750197;81;20978;-60
2022/04/19 01:35:16;;;;;;;6.65;4.08;;;;;;;0.31;69.12;99602.77;1744072;81;21040;-60
2022/04/19 01:37:46;;;;;;;5.70;3.60;;;;;;;0.30;69.37;99608.78;1743426;81;21904;-61
2022/04/19 01:40:16;;;;;;;5.00;3.02;;;;;;;0.29;69.42;99602.80;1701506;82;21069;-61
2022/04/19 01:42:54;;;;;;;3.90;3.10;;;;;;;0.31;70.57;99614.33;1723271;80;20949;-61
2022/04/19 01:45:24;;;;;;;5.17;2.90;;;;;;;0.28;70.06;99598.95;1757687;80;21016;-61
2022/04/19 01:47:52;;;;;;;5.85;3.70;;;;;;;0.27;70.55;99599.82;1728518;82;21041;-61
2022/04/19 01:50:20;;;;;;;6.83;3.37;;;;;;;0.26;70.30;99598.97;1731961;82;21241;-61
2022/04/19 01:52:50;;;;;;;9.75;3.60;;;;;;;0.26;70.28;99587.85;1734287;82;20955;-61
2022/04/19 01:55:18;;;;;;;6.12;3.72;;;;;;;0.28;70.30;99601.52;1739428;80;21069;-61
2022/04/19 01:57:49;;;;;;;7.50;3.17;;;;;;;0.27;71.17;99602.39;1748525;80;21096;-61
2022/04/19 02:00:17;;;;;;;4.90;3.37;;;;;;;0.28;70.89;99593.81;1745805;81;21109;-61
2022/04/19 02:02:45;;;;;;;8.20;3.27;;;;;;;0.32;70.78;99589.08;1729743;81;21032;-61
2022/04/19 02:05:13;;;;;;;5.65;3.25;;;;;;;0.34;70.89;99588.65;1737412;82;20986;-61
2022/04/19 02:07:46;;;;;;;6.55;2.90;;;;;;;0.39;70.73;99584.30;1738625;82;21182;-61
2022/04/19 02:10:15;;;;;;;7.50;2.77;;;;;;;0.42;71.33;99584.27;1732609;82;20928;-61
2022/04/19 02:12:43;;;;;;;6.55;3.08;;;;;;;0.48;71.30;99573.97;1741377;80;21002;-61
2022/04/19 02:15:11;;;;;;;9.13;3.17;;;;;;;0.54;72.49;99577.77;1743339;81;22262;-60
2022/04/19 02:17:49;;;;;;;5.45;3.08;;;;;;;0.56;71.59;99576.04;1752074;80;21060;-62
2022/04/19 02:20:19;;;;;;;4.65;3.35;;;;;;;0.57;72.71;99572.59;1729422;82;21593;-62
2022/04/19 02:22:46;;;;;;;4.12;2.98;;;;;;;0.56;71.67;99574.76;1756789;80;21596;-62
2022/04/19 02:25:15;;;;;;;4.50;3.15;;;;;;;0.57;72.31;99576.45;1728049;81;20959;-62
2022/04/19 02:27:43;;;;;;;6.12;3.17;;;;;;;0.58;72.23;99580.70;1736308;81;21925;-62
2022/04/19 02:30:15;;;;;;;5.67;3.20;;;;;;;0.61;72.57;99579.83;1719099;82;21097;-62
2022/04/19 02:32:47;;;;;;;5.33;2.90;;;;;;;0.65;71.96;99585.38;1722528;82;20943;-62
2022/04/19 02:35:21;;;;;;;8.73;3.27;;;;;;;0.69;71.93;99590.05;1730737;82;21504;-62
2022/04/19 02:37:59;;;;;;;4.85;2.37;;;;;;;0.75;72.50;99595.13;1739509;81;21049;-62
2022/04/19 02:40:27;;;;;;;8.53;2.92;;;;;;;0.83;72.81;99588.20;1754216;80;21087;-62
2022/04/19 02:42:55;;;;;;;4.92;2.80;;;;;;;0.91;74.01;99583.83;1752218;80;20938;-62
2022/04/19 02:45:23;;;;;;;5.53;2.98;;;;;;;0.97;73.09;99586.33;1742067;80;20906;-61
2022/04/19 02:48:07;;;;;;;4.67;3.05;;;;;;;1.01;72.75;99582.00;1756785;81;20994;-62
2022/04/19 02:50:43;;;;;;;4.17;2.62;;;;;;;1.03;72.46;99586.27;1765171;80;20914;-61
2022/04/19 02:53:10;;;;;;;6.45;3.20;;;;;;;1.08;72.74;99589.64;1745437;80;21093;-62
2022/04/19 02:55:36;;;;;;;6.60;2.55;;;;;;;1.10;72.92;99585.34;1762282;79;20981;-62
2022/04/19 02:58:07;;;;;;;6.65;2.40;;;;;;;1.14;73.62;99585.30;1760203;80;21539;-62
2022/04/19 03:00:33;;;;;;;3.98;2.62;;;;;;;1.18;73.11;99584.42;1753191;80;21506;-61
2022/04/19 03:02:59;;;;;;;4.50;2.33;;;;;;;1.22;73.30;99593.79;1720964;81;21009;-62
2022/04/19 03:05:26;;;;;;;5.40;2.83;;;;;;;1.27;73.77;99590.73;1752650;81;22199;-62
2022/04/19 03:07:53;;;;;;;3.75;2.55;;;;;;;1.33;73.29;99582.50;1732293;82;20958;-62
2022/04/19 03:10:21;;;;;;;4.53;2.30;;;;;;;1.40;74.08;99588.44;1766188;80;21028;-62
2022/04/19 03:12:50;;;;;;;5.35;2.90;;;;;;;1.50;73.39;99592.58;1741343;81;21668;-62
2022/04/19 03:15:17;;;;;;;3.72;2.12;;;;;;;1.63;73.43;99589.87;1735422;81;21112;-62
2022/04/19 03:17:44;;;;;;;3.75;2.15;;;;;;;1.70;73.30;99581.18;1737016;81;21540;-61
2022/04/19 03:20:12;;;;;;;6.87;2.00;;;;;;;1.78;73.31;99590.50;1753100;81;21005;-62
2022/04/19 03:28:19;;;;;;;6.50;2.60;;;;;;;2.06;73.26;99569.95;1808767;77;22227;-60
2022/04/19 03:30:46;;;;;;;4.77;2.10;;;;;;;2.15;73.09;99573.66;1816693;78;20993;-60
2022/04/19 03:33:12;;;;;;;4.80;2.52;;;;;;;2.15;73.09;99573.66;1821404;78;23203;-60
2022/04/19 03:35:42;;;;;;;5.70;1.93;;;;;;;2.19;73.05;99578.76;1815940;78;21009;-60
2022/04/19 03:38:08;;;;;;;3.25;2.05;;;;;;;2.23;73.25;99571.83;1826997;77;20910;-61
2022/04/19 03:40:36;;;;;;;6.80;2.65;;;;;;;2.20;73.03;99577.02;1821182;77;21481;-62
2022/04/19 03:43:07;;;;;;;5.90;2.72;;;;;;;2.19;72.98;99575.34;1817776;77;26710;-62
2022/04/19 03:45:33;;;;;;;6.50;3.08;;;;;;;2.20;72.96;99582.17;1817884;78;21095;-61
2022/04/19 03:48:00;;;;;;;3.75;2.30;;;;;;;2.15;73.11;99581.39;1801181;78;21039;-61
2022/04/19 03:50:27;;;;;;;11.38;2.75;;;;;;;2.01;72.91;99582.44;1819380;77;20953;-61
2022/04/19 03:52:53;;;;;;;3.53;2.37;;;;;;;1.98;73.30;99576.49;1811552;77;20993;-61
2022/04/19 03:55:20;;;;;;;4.67;2.50;;;;;;;1.96;73.37;99577.82;1822936;78;21012;-61
2022/04/19 03:57:47;;;;;;;6.80;2.77;;;;;;;1.98;73.61;99579.91;1825842;77;21453;-61
2022/04/19 04:00:15;;;;;;;6.20;3.03;;;;;;;2.03;73.49;99582.87;1819364;77;20987;-61
2022/04/19 04:02:42;;;;;;;4.42;2.52;;;;;;;2.06;73.39;99584.12;1825824;77;21090;-61
2022/04/19 04:05:09;;;;;;;6.67;2.97;;;;;;;2.14;73.51;99593.87;1797925;78;21049;-62
2022/04/19 04:07:37;;;;;;;5.17;2.87;;;;;;;2.23;73.48;99592.44;1810493;78;21056;-61
2022/04/19 04:10:05;;;;;;;6.00;2.58;;;;;;;2.32;73.80;99600.01;1820176;78;21967;-61
2022/04/19 04:12:32;;;;;;;7.85;2.33;;;;;;;2.39;73.90;99603.36;1815940;78;21020;-61
2022/04/19 04:15:00;;;;;;;4.03;2.10;;;;;;;2.51;73.84;99602.30;1813501;78;21021;-61
2022/04/19 04:17:28;;;;;;;3.87;2.30;;;;;;;2.63;73.93;99594.36;1808358;77;20969;-61
2022/04/19 04:19:55;;;;;;;4.05;2.30;;;;;;;2.72;74.27;99601.95;1819320;77;20973;-61
2022/04/19 04:22:21;;;;;;;9.70;2.40;;;;;;;2.75;74.36;99609.64;1730567;81;21505;-61
2022/04/19 04:24:48;;;;;;;6.22;2.52;;;;;;;2.78;74.24;99617.31;1756526;79;20961;-61
2022/04/19 04:27:15;;;;;;;4.15;2.30;;;;;;;2.85;74.24;99617.60;1749101;79;20996;-60
2022/04/19 04:29:42;;;;;;;7.10;3.20;;;;;;;2.88;74.06;99608.52;1755488;81;21837;-62
2022/04/19 04:32:08;;;;;;;8.55;4.22;;;;;;;2.95;74.11;99614.88;1767687;81;21053;-61
2022/04/19 04:34:35;;;;;;;7.10;4.30;;;;;;;2.99;74.72;99622.97;1769538;81;21166;-61
2022/04/19 04:37:03;;;;;;;8.10;4.58;;;;;;;3.01;74.35;99605.73;1765638;81;21462;-61
2022/04/19 04:39:29;;;;;;;6.97;3.62;;;;;;;3.03;74.19;99611.73;1762395;79;20961;-61
2022/04/19 04:41:57;;;;;;;5.03;3.07;;;;;;;3.06;74.15;99615.09;1766230;81;21508;-61
2022/04/19 04:44:24;;;;;;;5.20;2.22;;;;;;;3.12;74.17;99598.20;1786733;78;20974;-61
2022/04/19 04:49:36;;;;;;;8.43;2.75;;;;;;;3.34;74.36;99594.77;1776695;80;20973;-61
2022/04/19 04:52:10;;;;;;;4.17;2.35;;;;;;;3.45;74.32;99597.14;1782603;80;21560;-61
2022/04/19 04:54:39;;;;;;;5.45;2.52;;;;;;;3.54;74.50;99601.27;1787046;80;21036;-62
2022/04/19 04:57:07;;;;;;;5.78;2.95;;;;;;;3.63;74.47;99606.23;1780308;78;21091;-62
2022/04/19 04:59:35;;;;;;;5.67;2.10;;;;;;;3.72;74.51;99611.19;1786845;80;21034;-59
2022/04/19 05:02:03;;;;;;;3.83;1.70;;;;;;;3.85;74.46;99608.38;1771949;79;21061;-61
2022/04/19 05:04:32;;;;;;;5.00;1.75;;;;;;;3.95;74.53;99617.59;1783466;80;20969;-62
2022/04/19 05:07:00;;;;;;;4.85;1.80;;;;;;;4.07;74.47;99616.05;1744039;81;21033;-62
2022/04/19 05:09:26;;;;;;;6.80;2.17;;;;;;;4.16;74.50;99614.55;1757638;80;20993;-61
2022/04/19 05:11:53;;;;;;;5.08;2.10;;;;;;;4.24;74.69;99612.64;1768157;80;21215;-61
2022/04/19 05:14:21;;;;;;;2.67;1.50;;;;;;;4.29;74.48;99612.54;1757173;80;21028;-62
2022/04/19 05:16:48;;;;;;;6.50;2.20;;;;;;;4.36;74.55;99613.23;1754983;80;20911;-62
2022/04/19 05:19:14;;;;;;;4.22;2.20;;;;;;;4.36;74.49;99617.95;1748924;81;21053;-62
2022/04/19 05:21:41;;;;;;;5.28;2.35;;;;;;;4.41;74.45;99613.98;1780368;78;21044;-62
2022/04/19 05:24:09;;;;;;;3.25;1.67;;;;;;;4.46;74.50;99625.91;1778436;78;21615;-62
2022/04/19 05:26:36;;;;;;;;;;;;;;;4.51;74.48;99619.77;1790836;79;20986;-62
2022/04/19 05:29:06;;;;;;;5.97;1.92;;;;;;;4.58;74.46;99615.70;1740094;80;20101;-63
2022/04/19 05:31:33;;;;;;;3.62;2.15;;;;;;;4.65;74.46;99617.69;1759055;79;21047;-62
2022/04/19 05:34:00;;;;;;;4.95;2.30;;;;;;;4.74;74.52;99611.47;1771398;80;21003;-62
2022/04/19 05:36:27;;;;;;;4.70;2.47;;;;;;;4.81;74.45;99604.78;1778485;80;21900;-62
2022/04/19 05:38:55;;;;;;;6.55;2.70;;;;;;;4.88;74.44;99601.61;1762046;80;20954;-62
2022/04/19 05:41:23;;;;;;;4.95;2.35;;;;;;;4.97;74.45;99595.34;1748797;81;20941;-62
2022/04/19 05:43:50;;;;;;;5.15;1.80;;;;;;;5.03;74.35;99614.13;1784312;79;20982;-62
2022/04/19 05:46:20;;;;;;;5.50;1.98;;;;;;;5.09;74.31;99612.67;1746006;81;20949;-62
2022/04/19 05:48:47;;;;;;;4.75;1.90;;;;;;;5.11;74.31;99612.19;1747391;81;21209;-62
2022/04/19 05:51:13;;;;;;;6.80;2.45;;;;;;;5.15;74.22;99616.42;1744713;80;21073;-62
2022/04/19 05:53:40;;;;;;;3.85;2.10;;;;;;;5.22;74.27;99624.01;1761064;80;21068;-62
2022/04/19 05:56:10;;;;;;;5.35;1.80;;;;;;;5.24;74.15;99622.23;1757804;80;20938;-63
2022/04/19 05:58:36;;;;;;;6.60;1.50;;;;;;;5.27;73.96;99616.97;1763794;81;20914;-62
2022/04/19 06:01:03;;;;;;;4.42;1.80;;;;;;;5.30;73.85;99622.06;1759062;81;22245;-62
2022/04/19 06:06:16;;;;;;;4.35;1.67;;;;;;;5.44;73.58;99608.29;1763564;81;21006;-63
2022/04/19 06:08:43;;;;;;;4.90;2.52;;;;;;;5.54;73.34;99612.30;1769242;81;20954;-62
2022/04/19 06:11:12;;;;;;;7.28;2.33;;;;;;;5.63;73.21;99609.92;1758977;81;21637;-62
2022/04/19 06:13:40;;;;;;;3.58;2.12;;;;;;;5.77;73.43;99618.13;1754657;81;21076;-63
2022/04/19 06:16:13;;;;;;;5.80;2.55;;;;;;;5.92;72.80;99618.12;1754247;81;20982;-63
2022/04/19 06:18:40;;;;;;;6.85;1.75;;;;;;;6.05;72.94;99607.82;1768851;81;21556;-62
2022/04/19 06:21:08;;;;;;;8.10;4.78;;;;;;;6.32;73.40;99611.73;1752476;80;21064;-63
2022/04/19 06:23:35;;;;;;;6.55;4.62;;;;;;;6.45;72.12;99622.13;1745282;81;20973;-63
2022/04/19 06:26:03;;;;;;;12.05;5.60;;;;;;;6.37;72.09;99623.27;1768674;81;21948;-63
2022/04/19 06:28:30;;;;;;;8.45;3.65;;;;;;;6.24;72.36;99630.56;1756930;81;20986;-62
2022/04/19 06:30:56;;;;;;;7.62;3.77;;;;;;;6.17;72.37;99630.38;1739013;81;21066;-63
2022/04/19 06:33:23;;;;;;;5.90;3.50;;;;;;;6.14;72.15;99625.28;1728125;81;21088;-63
2022/04/19 06:35:50;;;;;;;10.43;3.83;;;;;;;6.23;72.52;99631.47;1749332;81;21590;-63
2022/04/19 06:38:16;;;;;;;7.62;3.25;;;;;;;6.35;72.58;99629.78;1728456;82;21127;-63
2022/04/19 06:40:43;;;;;;;7.67;3.58;;;;;;;6.38;71.90;99627.55;1746910;80;21000;-63
2022/04/19 06:43:10;;;;;;;13.50;4.58;;;;;;;6.33;72.23;99632.90;1735355;82;21634;-63
2022/04/19 06:45:36;;;;;;;13.28;5.08;;;;;;;6.49;72.23;99636.67;1738955;82;20955;-64
2022/04/19 06:48:05;;;;;;;10.32;4.78;;;;;;;6.57;72.31;99636.44;1735537;82;21496;-63
2022/04/19 06:50:32;;;;;;;8.50;4.50;;;;;;;6.70;71.73;99639.50;1740445;82;21146;-63
2022/04/19 06:52:59;;;;;;;6.33;3.60;;;;;;;6.59;71.64;99635.11;1743896;80;21021;-63
2022/04/19 06:55:28;;;;;;;7.83;4.25;;;;;;;6.62;71.75;99632.41;1749904;80;21066;-61
2022/04/19 06:57:55;;;;;;;8.40;4.60;;;;;;;6.69;71.90;99643.84;1762230;80;22098;-62
2022/04/19 07:00:22;;;;;;;8.43;4.08;;;;;;;6.78;71.42;99645.28;1751746;80;21039;-63
2022/04/19 07:02:49;;;;;;;7.30;4.10;;;;;;;7.07;72.30;99642.16;1741408;82;21053;-61
2022/04/19 07:05:20;;;;;;;8.58;4.83;;;;;;;7.52;71.96;99634.95;1733009;81;21018;-62
2022/04/19 07:07:46;;;;;;;8.18;3.45;;;;;;;7.78;72.03;99641.33;1738909;81;21005;-62
2022/04/19 07:10:14;;;;;;;7.27;4.03;;;;;;;8.04;71.10;99632.56;1744629;81;21002;-62
2022/04/19 07:12:41;;;;;;;7.78;3.52;;;;;;;8.16;70.76;99640.34;1730159;81;21073;-65
2022/04/19 07:15:08;;;;;;;2.85;1.75;;;;;;;8.30;71.33;99644.55;1746247;81;21171;-65
2022/04/19 07:17:43;;;;;;;5.97;1.65;;;;;;;8.48;70.65;99651.27;1703936;81;21135;-66
2022/04/19 07:28:36;;;;;;;3.42;1.75;;;;;;;8.84;69.94;99630.70;1731748;82;21204;-61
2022/04/19 07:31:04;;;;;;;2.67;1.80;;;;;;;9.08;69.71;99665.30;1722687;81;21566;-61
2022/04/19 07:33:31;;;;;;;;;;;;;;;9.14;69.17;99670.71;1740079;82;21013;-60
2022/04/19 07:35:58;;;;;;;1.50;1.25;;;;;;;9.12;66.58;99676.43;1735049;82;20463;-61
2022/04/19 07:38:25;;;;;;;2.40;1.50;;;;;;;9.11;67.81;99676.89;1746255;81;21068;-61
2022/04/19 07:41:13;;;;;;;3.55;1.72;;;;;;;9.10;67.52;99683.45;1680134;83;21069;-61
2022/04/19 07:43:43;;;;;;;7.85;2.10;;;;;;;9.25;67.31;99676.77;1720218;83;26755;-61
2022/04/19 07:46:10;;;;;;;2.47;1.22;;;;;;;9.16;65.37;99669.73;1722449;82;20977;-62
2022/04/19 07:48:38;;;;;;;4.05;1.27;;;;;;;9.06;65.41;99661.91;1720434;82;20989;-61
2022/04/19 07:51:05;;;;;;;2.33;1.45;;;;;;;9.06;65.41;99661.91;1719347;82;21198;-61
2022/04/19 07:53:32;;;;;;;3.75;1.80;;;;;;;9.17;64.95;99663.60;1690573;83;21097;-61
2022/04/19 07:55:59;;;;;;;4.28;1.37;;;;;;;9.30;65.12;99670.88;1680048;83;21030;-61
2022/04/19 07:58:26;;;;;;;2.27;1.37;;;;;;;9.43;64.51;99670.75;1718419;83;20949;-61
2022/04/19 08:00:53;;;;;;;1.77;1.00;;;;;;;9.56;64.23;99653.67;1679903;83;21683;-61
2022/04/19 08:03:23;;;;;;;1.15;0.88;;;;;;;9.61;63.61;99662.14;1716969;83;21526;-62
2022/04/19 08:05:51;;;;;;;1.55;1.10;;;;;;;9.75;63.94;99663.30;1722908;83;21068;-61
2022/04/19 08:08:21;;;;;;;2.58;1.20;;;;;;;9.92;63.34;99660.77;1676657;83;21015;-61
2022/04/19 08:11:11;;;;;;;1.80;1.10;;;;;;;10.12;63.60;99685.10;1730824;82;21055;-61
2022/04/19 08:13:41;;;;;;;1.35;0.98;;;;;;;10.04;61.88;99699.33;1719433;81;20937;-62
2022/04/19 08:16:11;;;;;;;2.33;1.40;;;;;;;9.95;61.28;99665.84;1764235;79;21017;-62
2022/04/19 08:18:41;;;;;;;1.90;1.30;;;;;;;9.78;61.13;99679.64;1755049;80;21072;-62
2022/04/19 08:21:11;;;;;;;2.67;1.62;;;;;;;9.77;61.16;99687.52;1767289;79;21761;-62
2022/04/19 08:23:43;;;;;;;3.83;1.40;;;;;;;9.69;60.00;99679.19;1760538;80;20995;-62
2022/04/19 08:26:13;;;;;;;3.00;1.27;;;;;;;9.57;60.08;99684.03;1747219;81;20950;-62
2022/04/19 08:28:40;;;;;;;2.92;1.65;;;;;;;9.68;59.71;99682.72;1758920;79;21640;-62
2022/04/19 08:31:07;;;;;;;4.37;1.65;;;;;;;9.71;59.28;99661.73;1720111;81;22096;-62
2022/04/19 08:33:34;;;;;;;2.47;1.72;;;;;;;9.68;58.79;99684.03;1723637;81;28254;-62
2022/04/19 08:36:01;;;;;;;1.65;1.30;;;;;;;9.76;59.06;99678.02;1752312;79;20989;-62
2022/04/19 08:38:28;;;;;;;2.22;1.42;;;;;;;9.81;59.24;99668.23;1758704;80;21041;-63
2022/04/19 08:41:00;;;;;;;2.05;1.70;;;;;;;9.94;58.66;99668.08;1748447;80;21012;-62
2022/04/19 08:43:28;;;;;;;2.20;1.60;;;;;;;9.98;58.70;99685.27;1760850;80;21116;-62
2022/04/19 08:45:55;;;;;;;2.42;1.72;;;;;;;9.95;58.27;99672.83;1763148;80;21053;-62
2022/04/19 08:48:35;;;;;;;3.92;1.90;;;;;;;9.99;58.03;99675.20;1758538;80;20985;-62
2022/04/19 08:51:05;;;;;;;1.92;1.30;;;;;;;9.92;57.83;99686.85;1765741;80;20970;-62
2022/04/19 08:59:07;;;;;;;4.47;1.17;;;;;;;10.02;57.23;99690.72;1710419;82;21033;-62
2022/04/19 09:01:39;;;;;;;3.50;1.60;;;;;;;9.98;56.97;99697.00;1713891;80;21507;-61
2022/04/19 09:04:06;;;;;;;3.87;1.52;;;;;;;9.91;57.03;99685.14;1736361;81;21614;-61
2022/04/19 09:06:56;;;;;;;3.33;1.50;;;;;;;9.78;56.48;99678.80;1735298;80;20984;-62
2022/04/19 09:09:27;;;;;;;2.85;1.70;;;;;;;9.69;57.01;99703.95;1743316;80;21786;-61
2022/04/19 09:12:06;;;;;;;3.72;1.70;;;;;;;9.61;56.34;99681.70;1727833;81;20971;-61
2022/04/19 09:14:33;;;;;;;3.75;2.12;;;;;;;9.61;56.34;99681.70;1711998;82;21033;-62
2022/04/19 09:17:10;;;;;;;2.98;1.72;;;;;;;9.59;56.30;99684.81;1720061;81;20989;-62
2022/04/19 09:19:43;;;;;;;2.12;1.57;;;;;;;9.55;56.73;99681.97;1716642;81;21003;-62
2022/04/19 09:22:17;;;;;;;2.67;1.45;;;;;;;9.64;55.84;99695.05;1717374;82;21072;-62
2022/04/19 09:24:46;;;;;;;1.70;1.52;;;;;;;9.64;56.24;99693.29;1715491;82;20994;-63
2022/04/19 09:27:13;;;;;;;2.40;1.60;;;;;;;9.64;56.07;99698.50;1723956;81;21733;-62
2022/04/19 09:29:41;;;;;;;2.50;1.47;;;;;;;9.70;56.31;99696.09;1713494;81;21002;-62
2022/04/19 09:32:13;;;;;;;4.62;1.70;;;;;;;9.77;55.84;99704.47;1716255;81;21260;-62
2022/04/19 09:34:45;;;;;;;2.85;1.57;;;;;;;9.74;55.85;99693.72;1689410;83;21098;-62
2022/04/19 09:37:14;;;;;;;9.60;2.12;;;;;;;9.80;55.73;99710.85;1728078;82;21051;-64
2022/04/19 09:39:44;;;;;;;5.85;1.70;;;;;;;9.82;55.02;99682.95;1723050;81;21036;-62
2022/04/19 09:42:14;;;;;;;2.83;1.62;;;;;;;9.83;56.09;99676.81;1725791;82;21013;-63
2022/04/19 09:44:43;;;;;;;1.98;1.70;;;;;;;9.83;56.09;99676.81;1730650;82;21603;-62
2022/04/19 09:47:12;;;;;;;5.45;2.33;;;;;;;10.20;54.95;99706.47;1727269;81;21120;-62
2022/04/19 09:49:53;;;;;;;2.83;1.70;;;;;;;10.14;54.70;99679.33;1715487;82;21815;-63
2022/04/19 09:52:48;;;;;;;3.05;2.00;;;;;;;9.87;54.87;99670.56;1710811;81;21033;-63
2022/04/19 09:55:11;;;;;;;2.17;1.50;;;;;;;10.01;54.92;99699.47;1697245;83;21094;-60
2022/04/19 09:57:40;;;;;;;1.77;1.50;;;;;;;9.97;54.67;99721.41;1693920;84;21029;-62
2022/04/19 10:00:13;;;;;;;4.62;1.40;;;;;;;9.86;54.30;99679.31;1687166;83;21645;-62
2022/04/19 10:08:20;;;;;;;2.10;1.55;;;;;;;10.08;54.53;99714.38;1684365;83;20153;-63
2022/04/19 10:10:56;;;;;;;1.80;1.22;;;;;;;9.82;54.22;99707.73;1685295;83;20940;-63
2022/04/19 10:13:25;;;;;;;1.98;1.27;;;;;;;9.76;54.18;99699.72;1698305;83;22191;-63
2022/04/19 10:15:53;;;;;;;2.35;1.45;;;;;;;9.66;54.28;99708.00;1683086;84;20998;-62
2022/04/19 10:18:19;;;;;;;1.90;1.42;;;;;;;9.59;54.29;99710.88;1692398;83;22154;-62
2022/04/19 10:20:58;;;;;;;1.75;1.42;;;;;;;9.54;54.29;99702.41;1687843;83;20988;-62
2022/04/19 10:23:37;;;;;;;3.90;1.42;;;;;;;9.52;54.29;99707.30;1700700;83;21051;-63
2022/04/19 10:26:34;;;;;;;3.35;1.75;;;;;;;9.49;54.42;99713.48;1691988;83;21096;-62
2022/04/19 10:29:04;;;;;;;3.90;1.80;;;;;;;9.63;54.65;99703.34;1632903;85;26741;-63
2022/04/19 10:31:34;;;;;;;2.90;1.50;;;;;;;9.85;54.48;99703.67;1630983;85;21032;-62
2022/04/19 10:34:05;;;;;;;3.77;1.52;;;;;;;9.87;54.45;99701.85;1654426;85;21032;-63
2022/04/19 10:36:40;;;;;;;4.97;1.70;;;;;;;9.78;54.38;99702.27;1657928;84;21173;-61
2022/04/19 10:39:18;;;;;;;2.47;1.72;;;;;;;9.90;54.37;99709.54;1651431;85;21200;-62
2022/04/19 10:41:55;;;;;;;2.00;1.37;;;;;;;9.93;54.27;99704.18;1662701;85;21616;-62
2022/04/19 10:44:43;;;;;;;3.27;1.50;;;;;;;10.14;54.67;99714.55;1654805;84;20937;-63
2022/04/19 10:47:16;;;;;;;2.80;1.50;;;;;;;10.28;54.62;99696.56;1635636;85;21079;-63
2022/04/19 10:50:05;;;;;;;2.52;1.60;;;;;;;10.47;54.79;99701.31;1600412;88;21066;-62
2022/04/19 10:52:43;;;;;;;2.80;1.62;;;;;;;10.57;54.33;99728.28;1608741;87;21532;-63
2022/04/19 10:55:23;;;;;;;3.40;1.50;;;;;;;10.56;54.40;99705.68;1599592;88;21724;-63
2022/04/19 10:58:09;;;;;;;2.00;1.60;;;;;;;10.49;53.90;99711.20;1595986;88;21166;-62
2022/04/19 11:00:45;;;;;;;2.05;1.50;;;;;;;10.42;54.11;99704.59;1602033;88;21038;-63
2022/04/19 11:03:22;;;;;;;3.00;1.55;;;;;;;10.47;53.90;99720.02;1595781;88;21030;-62
2022/04/19 11:06:14;;;;;;;4.33;1.60;;;;;;;10.26;53.63;99737.50;1616814;87;21226;-62
2022/04/19 11:08:42;;;;;;;3.00;2.08;;;;;;;10.09;53.83;99709.09;1596258;88;21149;-62
2022/04/19 11:11:23;;;;;;;3.00;1.75;;;;;;;9.71;54.13;99716.48;1600962;88;21076;-62
2022/04/19 11:14:18;;;;;;;3.05;2.05;;;;;;;9.52;54.71;99726.84;1615158;86;21208;-63
2022/04/19 11:16:50;;;;;;;5.70;2.27;;;;;;;9.48;55.12;99720.92;1593886;88;22961;-61
2022/04/19 11:19:22;;;;;;;3.35;1.80;;;;;;;9.69;55.74;99718.30;1621710;87;21491;-63
2022/04/19 11:21:58;;;;;;;3.05;2.10;;;;;;;9.69;55.74;99718.30;1623653;86;21638;-61
2022/04/19 11:25:06;;;;;;;3.47;1.98;;;;;;;9.76;55.86;99727.56;1619942;87;21147;-63
2022/04/19 11:28:01;;;;;;;3.90;1.90;;;;;;;9.61;55.76;99714.28;1615875;87;21120;-63
2022/04/19 11:30:29;;;;;;;3.20;1.55;;;;;;;9.54;56.01;99712.00;1619470;87;22517;-64
2022/04/19 11:32:59;;;;;;;5.08;2.35;;;;;;;9.53;56.23;99711.16;1617250;87;21017;-64
2022/04/19 11:35:31;;;;;;;3.98;2.08;;;;;;;9.47;56.29;99717.10;1618498;87;21049;-64
2022/04/19 11:37:55;;;;;;;3.35;1.70;;;;;;;9.38;56.39;99717.01;1590305;88;21103;-61
2022/04/19 11:48:50;;;;;;;1.60;1.50;;;;;;;9.46;56.73;99686.25;1626404;86;20988;-65
2022/04/19 11:51:22;;;;;;;2.17;1.50;;;;;;;9.61;56.93;99701.25;1664906;84;21092;-64
2022/04/19 11:53:50;;;;;;;6.95;2.00;;;;;;;9.64;57.09;99703.72;1665076;84;21513;-65
2022/04/19 11:56:19;;;;;;;;;;;;;;;9.64;56.87;99700.27;1648121;85;20975;-65
2022/04/19 11:58:51;;;;;;;2.80;1.50;;;;;;;9.59;57.02;99709.58;1669864;84;21440;-64
2022/04/19 12:01:20;;;;;;;2.33;2.10;;;;;;;9.64;57.08;99714.14;1665966;84;22532;-61
2022/04/19 12:03:47;;;;;;;1.98;1.50;;;;;;;9.72;57.29;99697.30;1646786;84;21014;-62
2022/04/19 12:06:18;;;;;;;3.00;2.17;;;;;;;9.81;57.06;99696.92;1649316;85;21015;-63
2022/04/19 12:08:51;;;;;;;2.33;1.60;;;;;;;9.80;56.87;99703.03;1643574;85;21057;-63
2022/04/19 12:11:28;;;;;;;1.75;1.65;;;;;;;9.94;57.64;99705.89;1673798;84;21073;-63
2022/04/19 12:13:59;;;;;;;3.17;1.72;;;;;;;10.27;57.14;99689.63;1647051;84;21216;-63
2022/04/19 12:16:32;;;;;;;1.52;1.30;;;;;;;10.39;56.91;99700.82;1666016;83;22105;-64
2022/04/19 12:19:01;;;;;;;2.00;1.45;;;;;;;10.39;56.91;99700.82;1646266;85;21607;-63
2022/04/19 12:21:43;;;;;;;2.30;1.17;;;;;;;10.61;57.40;99694.56;1646956;85;21042;-63
2022/04/19 12:24:32;;;;;;;1.50;1.40;;;;;;;10.73;56.98;99692.69;1647852;85;21082;-62
2022/04/19 12:27:09;;;;;;;5.22;1.52;;;;;;;10.75;56.84;99692.12;1630284;86;20964;-63
2022/04/19 12:29:59;;;;;;;2.55;1.95;;;;;;;10.71;56.21;99704.97;1662429;84;20980;-62
2022/04/19 12:32:56;;;;;;;2.45;1.60;;;;;;;10.67;56.58;99695.56;1671194;84;22116;-63
2022/04/19 12:35:35;;;;;;;2.83;2.02;;;;;;;10.60;56.31;99699.41;1668478;84;21019;-62
2022/04/19 12:38:16;;;;;;;3.60;1.60;;;;;;;10.43;56.21;99724.55;1671860;84;23210;-62